createdAt,value
2019-03-15T00:02:02.109Z,19.30
2019-03-15T00:04:40.067Z,19.87
2019-03-15T00:07:10.089Z,27.10
2019-03-15T00:12:10.202Z,22.17
2019-03-15T00:14:40.478Z,25.43
2019-03-15T00:17:10.805Z,22.80
2019-03-15T00:19:41.083Z,22.10
2019-03-15T00:22:11.507Z,23.27
2019-03-15T00:27:11.731Z,17.98
2019-03-15T00:29:42.038Z,19.98
2019-03-15T00:32:14.203Z,21.25
2019-03-15T00:34:44.561Z,21.20
2019-03-15T00:37:14.927Z,26.27
2019-03-15T00:39:45.283Z,22.50
2019-03-15T00:42:15.968Z,25.92
2019-03-15T00:44:46.311Z,21.35
2019-03-15T00:47:17.394Z,23.67
2019-03-15T00:49:47.930Z,20.50
2019-03-15T00:52:18.555Z,24.45
2019-03-15T00:57:18.373Z,23.50
2019-03-15T00:59:48.690Z,26.82
2019-03-15T01:02:18.954Z,23.22
2019-03-15T01:04:49.294Z,34.15
2019-03-15T01:07:19.717Z,27.62
2019-03-15T01:09:50.043Z,24.70
2019-03-15T01:12:20.348Z,28.30
2019-03-15T01:14:50.780Z,22.70
2019-03-15T01:17:21.458Z,23.60
2019-03-15T01:19:51.761Z,25.40
2019-03-15T01:22:24.219Z,23.98
2019-03-15T01:24:54.483Z,25.60
2019-03-15T01:27:24.878Z,30.52
2019-03-15T01:29:55.213Z,25.82
2019-03-15T01:32:25.478Z,28.98
2019-03-15T01:34:55.807Z,29.85
2019-03-15T01:37:26.071Z,23.27
2019-03-15T01:39:56.345Z,26.40
2019-03-15T01:42:26.674Z,27.02
2019-03-15T01:44:57.020Z,28.30
2019-03-15T01:47:27.339Z,31.50
2019-03-15T01:49:58.601Z,28.47
2019-03-15T01:52:29.051Z,26.48
2019-03-15T01:54:59.422Z,25.97
2019-03-15T01:57:29.924Z,23.00
2019-03-15T02:02:29.796Z,24.90
2019-03-15T02:05:00.061Z,25.37
2019-03-15T02:07:30.351Z,26.20
2019-03-15T02:10:00.710Z,29.37
2019-03-15T02:12:31.043Z,22.90
2019-03-15T02:15:01.430Z,26.07
2019-03-15T02:17:31.882Z,23.77
2019-03-15T02:20:03.277Z,22.27
2019-03-15T02:22:33.715Z,23.00
2019-03-15T02:27:33.638Z,25.68
2019-03-15T02:30:06.052Z,22.20
2019-03-15T02:32:36.415Z,23.07
2019-03-15T02:37:36.516Z,29.25
2019-03-15T02:40:07.067Z,28.55
2019-03-15T02:45:06.810Z,23.57
2019-03-15T02:47:37.131Z,28.35
2019-03-15T02:50:08.379Z,26.80
2019-03-15T02:52:38.869Z,29.98
2019-03-15T02:55:09.415Z,26.42
2019-03-15T03:00:09.908Z,29.87
2019-03-15T03:05:10.366Z,28.92
2019-03-15T03:07:40.679Z,27.70
2019-03-15T03:10:11.029Z,31.00
2019-03-15T03:12:41.430Z,32.15
2019-03-15T03:15:11.905Z,23.90
2019-03-15T03:17:42.226Z,33.53
2019-03-15T03:20:13.517Z,26.85
2019-03-15T03:22:43.926Z,33.25
2019-03-15T03:25:14.607Z,29.50
2019-03-15T03:30:16.883Z,35.10
2019-03-15T03:32:47.255Z,32.67
2019-03-15T03:35:17.581Z,27.02
2019-03-15T03:37:48.005Z,28.67
2019-03-15T03:40:20.430Z,27.65
2019-03-15T03:42:50.426Z,24.77
2019-03-15T03:45:23.227Z,27.95
2019-03-15T03:47:52.771Z,30.17
2019-03-15T03:50:23.162Z,28.90
2019-03-15T03:52:53.548Z,27.52
2019-03-15T03:55:23.911Z,26.17
2019-03-15T03:57:54.268Z,31.87
2019-03-15T04:00:24.557Z,31.48
2019-03-15T04:02:54.894Z,34.43
2019-03-15T04:05:25.257Z,29.37
2019-03-15T04:07:55.709Z,27.95
2019-03-15T04:10:26.188Z,29.55
2019-03-15T04:12:56.662Z,28.20
2019-03-15T04:15:27.001Z,29.32
2019-03-15T04:17:57.431Z,26.07
2019-03-15T04:22:58.383Z,26.62
2019-03-15T04:25:28.974Z,33.13
2019-03-15T04:27:59.537Z,28.42
2019-03-15T04:30:29.796Z,24.67
2019-03-15T04:33:00.126Z,28.80
2019-03-15T04:35:30.502Z,29.63
2019-03-15T04:38:00.813Z,28.55
2019-03-15T04:40:31.114Z,29.35
2019-03-15T04:43:01.383Z,37.05
2019-03-15T04:45:31.708Z,28.60
2019-03-15T04:48:02.178Z,26.50
2019-03-15T04:53:02.094Z,32.03
2019-03-15T04:55:32.462Z,30.60
2019-03-15T04:58:02.788Z,31.50
2019-03-15T05:00:33.104Z,27.13
2019-03-15T05:03:03.434Z,29.12
2019-03-15T05:05:33.837Z,25.85
2019-03-15T05:08:04.153Z,25.75
2019-03-15T05:10:34.452Z,31.95
2019-03-15T05:13:04.909Z,24.35
2019-03-15T05:15:36.948Z,28.95
2019-03-15T05:18:07.262Z,32.63
2019-03-15T05:20:38.516Z,27.13
2019-03-15T05:23:08.931Z,29.60
2019-03-15T05:25:39.685Z,25.52
2019-03-15T05:28:10.080Z,22.95
2019-03-15T05:30:40.479Z,20.68
2019-03-15T05:33:10.810Z,25.55
2019-03-15T05:35:41.125Z,21.20
2019-03-15T05:38:11.444Z,21.85
2019-03-15T05:40:41.801Z,20.45
2019-03-15T05:43:12.191Z,21.20
2019-03-15T05:45:42.514Z,26.30
2019-03-15T05:48:12.893Z,20.82
2019-03-15T05:50:43.353Z,19.12
2019-03-15T05:53:13.657Z,19.12
2019-03-15T05:55:44.042Z,21.85
2019-03-15T05:58:14.467Z,29.07
2019-03-15T06:03:14.496Z,20.12
2019-03-15T06:05:44.879Z,21.42
2019-03-15T06:08:15.356Z,14.05
2019-03-15T06:13:15.702Z,18.45
2019-03-15T06:18:15.973Z,22.62
2019-03-15T06:20:47.267Z,17.12
2019-03-15T06:23:17.846Z,21.40
2019-03-15T06:25:48.385Z,17.42
2019-03-15T06:28:18.783Z,15.25
2019-03-15T06:33:19.312Z,19.13
2019-03-15T06:35:49.773Z,16.75
2019-03-15T06:38:20.201Z,15.40
2019-03-15T06:40:50.521Z,14.15
2019-03-15T06:43:20.850Z,17.57
2019-03-15T06:45:51.185Z,19.15
2019-03-15T06:48:21.443Z,15.88
2019-03-15T06:50:51.783Z,17.67
2019-03-15T06:53:22.055Z,16.55
2019-03-15T06:55:52.395Z,20.05
2019-03-15T06:58:22.867Z,20.23
2019-03-15T07:00:54.779Z,14.85
2019-03-15T07:03:25.314Z,18.15
2019-03-15T07:05:55.684Z,18.65
2019-03-15T07:08:26.031Z,16.67
2019-03-15T07:10:56.432Z,16.80
2019-03-15T07:13:26.723Z,15.15
2019-03-15T07:15:57.054Z,15.93
2019-03-15T07:18:27.459Z,17.37
2019-03-15T07:20:58.246Z,17.32
2019-03-15T07:23:31.425Z,12.70
2019-03-15T07:26:02.178Z,16.17
2019-03-15T07:31:02.291Z,14.85
2019-03-15T07:36:02.739Z,16.20
2019-03-15T07:41:02.908Z,16.95
2019-03-15T07:43:33.218Z,18.10
2019-03-15T07:46:03.709Z,20.10
2019-03-15T07:48:34.364Z,20.05
2019-03-15T07:53:37.729Z,17.02
2019-03-15T07:56:08.200Z,19.17
2019-03-15T07:58:38.706Z,17.23
2019-03-15T08:01:09.299Z,14.87
2019-03-15T08:03:40.005Z,13.58
2019-03-15T08:06:10.487Z,18.12
2019-03-15T08:08:41.430Z,18.00
2019-03-15T08:11:12.214Z,19.55
2019-03-15T08:13:42.819Z,19.52
2019-03-15T08:16:13.208Z,16.40
2019-03-15T08:18:43.521Z,15.80
2019-03-15T08:21:14.857Z,18.55
2019-03-15T08:23:45.183Z,15.78
2019-03-15T08:26:15.656Z,19.98
2019-03-15T08:28:45.971Z,19.07
2019-03-15T08:31:16.305Z,19.40
2019-03-15T08:33:46.631Z,17.98
2019-03-15T08:36:20.166Z,19.75
2019-03-15T08:38:49.009Z,21.10
2019-03-15T08:41:19.378Z,15.08
2019-03-15T08:43:49.758Z,20.97
2019-03-15T08:46:20.061Z,18.15
2019-03-15T08:48:50.461Z,24.20
2019-03-15T08:51:20.741Z,22.85
2019-03-15T08:53:51.067Z,24.35
2019-03-15T08:56:21.675Z,24.43
2019-03-15T08:58:52.128Z,20.08
2019-03-15T09:03:55.106Z,23.32
2019-03-15T09:06:25.506Z,24.80
2019-03-15T09:08:55.822Z,20.57
2019-03-15T09:11:26.187Z,19.40
2019-03-15T09:13:56.547Z,20.00
2019-03-15T09:16:26.871Z,24.37
2019-03-15T09:18:57.193Z,20.82
2019-03-15T09:21:28.439Z,27.13
2019-03-15T09:23:58.777Z,23.18
2019-03-15T09:28:58.827Z,20.50
2019-03-15T09:31:33.636Z,20.23
2019-03-15T09:34:01.125Z,21.45
2019-03-15T09:36:33.910Z,20.17
2019-03-15T09:39:04.217Z,28.45
2019-03-15T09:41:39.727Z,74.00
2019-03-15T09:44:06.645Z,27.35
2019-03-15T09:46:37.007Z,23.00
2019-03-15T09:49:07.882Z,19.45
2019-03-15T09:51:38.641Z,22.00
2019-03-15T09:54:09.291Z,36.50
2019-03-15T09:56:40.149Z,23.52
2019-03-15T09:59:10.780Z,21.35
2019-03-15T10:01:41.550Z,23.80
2019-03-15T10:04:12.201Z,21.55
2019-03-15T10:06:43.089Z,22.73
2019-03-15T10:09:13.896Z,19.55
2019-03-15T10:11:44.650Z,23.27
2019-03-15T10:14:15.322Z,20.37
2019-03-15T10:16:46.175Z,21.20
2019-03-15T10:19:16.913Z,18.50
2019-03-15T10:21:48.709Z,25.50
2019-03-15T10:24:19.460Z,112.65
2019-03-15T10:26:50.317Z,19.32
2019-03-15T10:29:21.065Z,34.45
2019-03-15T10:31:52.029Z,21.17
2019-03-15T10:34:22.679Z,23.02
2019-03-15T10:36:53.433Z,25.57
2019-03-15T10:39:24.292Z,21.90
2019-03-15T10:41:55.027Z,19.60
2019-03-15T10:44:25.677Z,48.85
2019-03-15T10:46:56.551Z,20.10
2019-03-15T10:49:30.606Z,29.02
2019-03-15T10:51:59.390Z,28.55
2019-03-15T10:56:59.976Z,18.60
2019-03-15T10:59:30.728Z,26.35
2019-03-15T11:02:02.916Z,26.25
2019-03-15T11:04:33.770Z,23.35
2019-03-15T11:07:04.523Z,23.40
2019-03-15T11:09:35.259Z,30.90
2019-03-15T11:12:06.191Z,22.30
2019-03-15T11:14:36.990Z,24.72
2019-03-15T11:17:07.846Z,23.15
2019-03-15T11:19:38.702Z,22.07
2019-03-15T11:22:10.481Z,23.83
2019-03-15T11:24:43.759Z,22.30
2019-03-15T11:27:13.726Z,27.22
2019-03-15T11:29:44.462Z,25.08
2019-03-15T11:32:15.233Z,29.07
2019-03-15T11:34:45.885Z,25.50
2019-03-15T11:37:16.745Z,42.70
2019-03-15T11:39:47.476Z,22.87
2019-03-15T11:42:18.252Z,20.95
2019-03-15T11:44:48.902Z,24.57
2019-03-15T11:47:19.743Z,25.20
2019-03-15T11:49:50.395Z,26.97
2019-03-15T11:52:21.269Z,20.35
2019-03-15T11:54:51.915Z,20.70
2019-03-15T11:57:22.774Z,24.72
2019-03-15T11:59:53.733Z,23.75
2019-03-15T12:02:24.382Z,20.12
2019-03-15T12:04:55.236Z,20.97
2019-03-15T12:07:25.975Z,21.77
2019-03-15T12:09:56.753Z,24.63
2019-03-15T12:12:45.922Z,24.27
2019-03-15T12:15:18.328Z,25.25
2019-03-15T12:17:48.851Z,22.27
2019-03-15T12:20:19.600Z,27.50
2019-03-15T12:22:51.173Z,36.55
2019-03-15T12:25:21.705Z,20.60
2019-03-15T12:27:52.483Z,22.55
2019-03-15T12:30:23.333Z,21.90
2019-03-15T12:32:54.071Z,24.02
2019-03-15T12:35:24.721Z,22.52
2019-03-15T12:40:25.315Z,21.23
2019-03-15T12:42:55.960Z,26.48
2019-03-15T12:45:26.836Z,24.92
2019-03-15T12:47:57.468Z,21.85
2019-03-15T12:50:28.237Z,20.75
2019-03-15T12:52:58.909Z,21.82
2019-03-15T12:55:29.731Z,19.37
2019-03-15T12:58:00.389Z,22.13
2019-03-15T13:00:31.154Z,21.77
2019-03-15T13:03:01.793Z,18.67
2019-03-15T13:05:32.642Z,20.48
2019-03-15T13:08:03.516Z,22.37
2019-03-15T13:10:34.268Z,20.68
2019-03-15T13:13:04.903Z,23.10
2019-03-15T13:15:35.759Z,23.35
2019-03-15T13:18:06.530Z,21.07
2019-03-15T13:20:37.283Z,17.82
2019-03-15T13:23:08.144Z,18.73
2019-03-15T13:25:38.996Z,19.82
2019-03-15T13:28:09.855Z,31.68
2019-03-15T13:30:40.386Z,26.90
2019-03-15T13:33:20.359Z,30.57
2019-03-15T13:35:43.655Z,19.60
2019-03-15T13:38:14.284Z,30.60
2019-03-15T13:43:14.784Z,37.67
2019-03-15T13:45:45.437Z,50.03
2019-03-15T13:48:16.293Z,38.83
2019-03-15T13:50:47.148Z,39.35
2019-03-15T13:53:17.786Z,46.02
2019-03-15T13:55:48.554Z,42.23
2019-03-15T13:58:19.409Z,40.85
2019-03-15T14:00:50.161Z,38.48
2019-03-15T14:03:20.806Z,34.73
2019-03-15T14:08:21.385Z,36.35
2019-03-15T14:10:52.038Z,37.33
2019-03-15T14:13:22.810Z,31.57
2019-03-15T14:15:53.664Z,41.37
2019-03-15T14:18:24.298Z,39.18
2019-03-15T14:20:55.069Z,40.67
2019-03-15T14:23:26.950Z,39.25
2019-03-15T14:25:57.805Z,44.85
2019-03-15T14:28:28.644Z,40.30
2019-03-15T14:30:59.419Z,41.33
2019-03-15T14:33:30.080Z,47.13
2019-03-15T14:36:03.875Z,47.30
2019-03-15T14:38:33.611Z,45.35
2019-03-15T14:41:07.346Z,40.35
2019-03-15T14:43:36.525Z,46.37
2019-03-15T14:46:07.599Z,47.13
2019-03-15T14:48:38.374Z,48.92
2019-03-15T14:51:09.229Z,45.43
2019-03-15T14:53:39.982Z,55.10
2019-03-15T14:56:10.743Z,47.53
2019-03-15T14:58:41.390Z,78.62
2019-03-15T15:01:12.123Z,65.00
2019-03-15T15:03:42.980Z,61.42
2019-03-15T15:06:15.399Z,60.05
2019-03-15T15:08:46.021Z,49.77
2019-03-15T15:11:16.778Z,64.05
2019-03-15T15:13:47.631Z,78.37
2019-03-15T15:16:18.406Z,59.33
2019-03-15T15:18:49.038Z,54.00
2019-03-15T15:21:19.922Z,63.08
2019-03-15T15:23:58.697Z,55.50
2019-03-15T15:26:29.192Z,45.28
2019-03-15T15:29:00.047Z,43.25
2019-03-15T15:31:30.801Z,42.35
2019-03-15T15:34:01.863Z,40.28
2019-03-15T15:36:32.517Z,44.67
2019-03-15T15:39:03.374Z,38.80
2019-03-15T15:41:34.122Z,36.90
2019-03-15T15:44:07.526Z,40.83
2019-03-15T15:46:37.987Z,38.20
2019-03-15T15:49:08.736Z,42.50
2019-03-15T15:51:39.697Z,45.50
2019-03-15T15:54:10.557Z,64.05
2019-03-15T15:59:10.713Z,58.60
2019-03-15T16:01:41.569Z,47.38
2019-03-15T16:04:12.445Z,45.98
2019-03-15T16:06:43.178Z,46.50
2019-03-15T16:09:13.729Z,44.65
2019-03-15T16:11:44.602Z,46.55
2019-03-15T16:14:15.236Z,41.92
2019-03-15T16:16:45.994Z,52.95
2019-03-15T16:19:16.661Z,49.42
2019-03-15T16:21:47.499Z,55.10
2019-03-15T16:24:19.275Z,53.87
2019-03-15T16:26:50.150Z,61.45
2019-03-15T16:29:21.005Z,68.37
2019-03-15T16:31:51.653Z,65.57
2019-03-15T16:34:22.512Z,57.83
2019-03-15T16:36:53.264Z,59.20
2019-03-15T16:39:23.900Z,57.38
2019-03-15T16:44:24.383Z,52.47
2019-03-15T16:49:24.968Z,60.15
2019-03-15T16:51:55.624Z,58.28
2019-03-15T16:56:56.107Z,66.10
2019-03-15T17:01:56.718Z,59.80
2019-03-15T17:04:27.461Z,58.83
2019-03-15T17:07:00.727Z,58.52
2019-03-15T17:09:30.718Z,71.90
2019-03-15T17:12:01.467Z,60.92
2019-03-15T17:14:32.107Z,71.77
2019-03-15T17:17:02.926Z,72.25
2019-03-15T17:19:33.717Z,83.17
2019-03-15T17:22:04.362Z,86.15
2019-03-15T17:29:35.625Z,78.07
2019-03-15T17:32:06.586Z,87.75
2019-03-15T17:34:37.210Z,77.62
2019-03-15T17:37:07.981Z,84.47
2019-03-15T17:39:38.736Z,83.25
2019-03-15T17:42:09.692Z,87.45
2019-03-15T17:44:40.559Z,74.17
2019-03-15T17:47:11.183Z,83.78
2019-03-15T17:49:41.936Z,78.80
2019-03-15T17:52:12.695Z,90.25
2019-03-15T17:54:43.550Z,91.05
2019-03-15T17:57:14.317Z,89.62
2019-03-15T18:00:00.416Z,79.40
2019-03-15T18:02:31.148Z,77.55
2019-03-15T18:05:01.922Z,74.25
2019-03-15T18:07:32.765Z,81.78
2019-03-15T18:10:04.842Z,85.87
2019-03-15T18:12:35.292Z,77.10
2019-03-15T18:15:08.111Z,99.40
2019-03-15T18:17:38.743Z,103.72
2019-03-15T18:20:10.510Z,99.55
2019-03-15T18:22:40.983Z,92.47
2019-03-15T18:25:12.760Z,93.55
2019-03-15T18:27:43.613Z,95.40
2019-03-15T18:30:18.053Z,121.20
2019-03-15T18:32:48.909Z,142.15
2019-03-15T18:35:32.648Z,134.43
2019-03-15T18:37:51.845Z,85.80
2019-03-15T18:40:22.699Z,95.10
2019-03-15T18:42:53.455Z,86.42
2019-03-15T18:45:24.212Z,85.32
2019-03-15T18:47:54.862Z,86.90
2019-03-15T18:50:26.535Z,88.05
2019-03-15T18:52:57.425Z,98.42
2019-03-15T18:55:28.245Z,97.35
2019-03-15T18:57:59.001Z,115.92
2019-03-15T19:00:29.659Z,112.28
2019-03-15T19:03:00.490Z,104.30
2019-03-15T19:05:31.271Z,109.95
2019-03-15T19:08:02.000Z,122.60
2019-03-15T19:10:32.754Z,126.15
2019-03-15T19:13:03.626Z,117.75
2019-03-15T19:15:34.260Z,110.50
2019-03-15T19:20:34.862Z,97.65
2019-03-15T19:23:05.600Z,85.38
2019-03-15T19:25:38.404Z,104.10
2019-03-15T19:28:09.173Z,96.42
2019-03-15T19:30:39.927Z,106.50
2019-03-15T19:33:10.764Z,110.97
2019-03-15T19:35:41.537Z,105.50
2019-03-15T19:38:14.912Z,98.30
2019-03-15T19:40:44.359Z,113.30
2019-03-15T19:43:15.214Z,104.92
2019-03-15T19:45:45.966Z,98.70
2019-03-15T19:48:16.726Z,109.35
2019-03-15T19:50:47.387Z,98.85
2019-03-15T19:53:18.253Z,107.12
2019-03-15T19:55:48.999Z,106.07
2019-03-15T19:58:19.857Z,117.00
2019-03-15T20:00:50.592Z,109.95
2019-03-15T20:03:21.465Z,114.50
2019-03-15T20:05:52.104Z,106.85
2019-03-15T20:08:22.872Z,101.97
2019-03-15T20:10:53.827Z,104.67
2019-03-15T20:13:24.580Z,107.52
2019-03-15T20:15:55.338Z,116.12
2019-03-15T20:18:25.974Z,104.53
2019-03-15T20:20:56.844Z,105.25
2019-03-15T20:23:27.598Z,102.47
2019-03-15T20:25:59.271Z,93.40
2019-03-15T20:28:30.131Z,103.62
2019-03-15T20:31:00.890Z,267.70
2019-03-15T20:33:31.738Z,108.25
2019-03-15T20:36:02.428Z,225.60
2019-03-15T20:38:33.229Z,316.98
2019-03-15T20:41:03.986Z,231.85
2019-03-15T20:43:34.857Z,145.60
2019-03-15T20:46:05.611Z,112.17
2019-03-15T20:48:36.260Z,100.27
2019-03-15T20:51:07.120Z,211.75
2019-03-15T20:53:37.855Z,148.97
2019-03-15T20:56:08.628Z,169.50
2019-03-15T20:58:39.361Z,139.50
2019-03-15T21:01:10.116Z,138.88
2019-03-15T21:03:40.867Z,149.15
2019-03-15T21:06:11.537Z,176.02
2019-03-15T21:08:42.392Z,165.22
2019-03-15T21:11:13.260Z,155.82
2019-03-15T21:13:44.002Z,156.40
2019-03-15T21:16:18.029Z,148.45
2019-03-15T21:18:46.945Z,159.32
2019-03-15T21:21:17.579Z,153.02
2019-03-15T21:23:48.348Z,148.17
2019-03-15T21:26:20.126Z,139.75
2019-03-15T21:28:50.572Z,131.70
2019-03-15T21:31:22.143Z,140.92
2019-03-15T21:33:52.880Z,130.35
2019-03-15T21:36:23.548Z,117.13
2019-03-15T21:38:54.405Z,129.18
2019-03-15T21:41:25.168Z,125.87
2019-03-15T21:43:55.894Z,156.40
2019-03-15T21:46:26.768Z,156.90
2019-03-15T21:48:57.607Z,146.90
2019-03-15T21:51:28.381Z,170.92
2019-03-15T21:53:59.034Z,184.48
2019-03-15T21:56:29.886Z,172.82
2019-03-15T21:59:00.950Z,190.38
2019-03-15T22:01:34.447Z,187.47
2019-03-15T22:04:05.215Z,189.77
2019-03-15T22:06:35.866Z,169.90
2019-03-15T22:11:36.234Z,160.23
2019-03-15T22:16:36.942Z,184.52
2019-03-15T22:19:07.580Z,178.47
2019-03-15T22:24:08.159Z,207.55
2019-03-15T22:26:39.027Z,213.45
2019-03-15T22:29:09.885Z,221.25
2019-03-15T22:31:40.751Z,210.05
2019-03-15T22:34:11.192Z,202.90
2019-03-15T22:36:41.727Z,187.57
2019-03-15T22:39:12.483Z,189.05
2019-03-15T22:41:43.356Z,194.65
2019-03-15T22:44:14.111Z,172.13
2019-03-15T22:46:44.741Z,179.05
2019-03-15T22:49:15.495Z,181.22
2019-03-15T22:51:46.350Z,173.60
2019-03-15T22:54:17.121Z,176.85
2019-03-15T22:56:47.780Z,175.27
2019-03-15T22:59:18.629Z,176.72
2019-03-15T23:01:49.365Z,175.38
2019-03-15T23:04:20.138Z,188.05
2019-03-15T23:06:50.977Z,182.45
2019-03-15T23:09:21.731Z,182.32
2019-03-15T23:11:52.487Z,180.63
2019-03-15T23:14:23.162Z,173.28
2019-03-15T23:16:54.020Z,173.55
2019-03-15T23:19:24.764Z,167.60
2019-03-15T23:21:55.501Z,183.00
2019-03-15T23:24:26.048Z,178.57
2019-03-15T23:26:58.767Z,173.95
2019-03-15T23:29:29.523Z,152.60
2019-03-15T23:32:00.269Z,169.05
2019-03-15T23:34:31.125Z,169.35
2019-03-15T23:37:01.984Z,164.28
2019-03-15T23:39:32.644Z,146.93
2019-03-15T23:42:03.507Z,153.23
2019-03-15T23:44:34.257Z,149.20
2019-03-15T23:47:04.979Z,153.75
2019-03-15T23:49:35.853Z,143.70
2019-03-15T23:52:06.605Z,139.45
2019-03-15T23:54:37.364Z,140.60
2019-03-15T23:57:08.116Z,154.55
2019-03-15T23:59:38.857Z,149.82
